Island of Crete, Greece
Current Conditions -  °F | °C
As of 9:20 PM on Tuesday 21 Oct 2014 (Local Time) from LGIR Reporting Station
Few Clouds Few Clouds  
Wind Chill: 63°   Ceiling: Unl
Heat Index: 63°   Visibility: 6mi
Dew Point: 54°   Wind: 5mph
Humidity: 72%   Direction: 180°S
Pressure: 29.91"   Gusts: NA
Location:  35.33°N, 25.18°E
Report Text: LGIR 211820Z 18004KT 9999 FEW025 17/12 Q1013 NOSIG
Loading
Personal Weather Stations






























Interactive Weather Map
Tropical Storm Tracking
New forecast layout! Learn more

10-Day Weather Forecast

Advertisements
Track Severe Weather on mobile